Time;durP1;ratioP1;P1;durP2;ratioP2;P2;SDS_P1;SDS_P2;PMS_P1;PMS_P2;Temp;Humidity;BMP_temperature;BMP_pressure;BME280_temperature;BME280_humidity;BME280_pressure;Samples;Min_cycle;Max_cycle;Signal;HPM_P1;HPM_P2
2021/11/24 00:00:23;;;;;;;9.73;7.57;;;7.40;99.90;;;;;;5070874;28;20059;-42
2021/11/24 00:02:50;;;;;;;10.38;7.70;;;7.40;99.90;;;;;;5070174;28;20476;-43
2021/11/24 00:05:16;;;;;;;9.32;7.25;;;7.40;99.90;;;;;;5070666;28;20438;-43
2021/11/24 00:07:42;;;;;;;8.15;6.85;;;7.40;99.90;;;;;;5070473;28;20820;-43
2021/11/24 00:10:10;;;;;;;8.52;7.63;;;7.40;99.90;;;;;;5070089;28;20153;-43
2021/11/24 00:12:37;;;;;;;8.13;7.32;;;7.40;99.90;;;;;;5069867;28;20020;-43
2021/11/24 00:15:04;;;;;;;8.05;6.90;;;7.40;99.90;;;;;;5070802;28;20032;-43
2021/11/24 00:17:29;;;;;;;7.80;6.57;;;7.40;99.90;;;;;;5069382;28;20505;-43
2021/11/24 00:19:55;;;;;;;7.65;6.90;;;7.30;99.90;;;;;;5070280;28;20075;-43
2021/11/24 00:22:21;;;;;;;8.40;7.47;;;7.30;99.90;;;;;;5070719;28;20024;-43
2021/11/24 00:24:46;;;;;;;7.70;7.00;;;7.30;99.90;;;;;;5070104;28;20033;-43
2021/11/24 00:27:12;;;;;;;7.43;6.70;;;7.20;99.90;;;;;;5070362;28;20025;-43
2021/11/24 00:29:37;;;;;;;6.80;6.10;;;7.20;99.90;;;;;;5070104;28;20028;-43
2021/11/24 00:32:03;;;;;;;8.30;5.85;;;7.10;99.90;;;;;;5069585;28;20393;-43
2021/11/24 00:34:29;;;;;;;7.13;6.43;;;7.10;99.90;;;;;;5069940;28;20033;-44
2021/11/24 00:36:54;;;;;;;8.73;7.03;;;7.10;99.90;;;;;;5069605;28;20028;-43
2021/11/24 00:39:20;;;;;;;8.18;7.22;;;7.00;99.90;;;;;;5069882;28;20056;-44
2021/11/24 00:41:46;;;;;;;7.63;6.82;;;7.00;99.90;;;;;;5070212;28;20028;-43
2021/11/24 00:44:11;;;;;;;8.82;6.78;;;6.90;99.90;;;;;;5069414;28;20021;-42
2021/11/24 00:46:37;;;;;;;7.97;7.18;;;6.90;99.90;;;;;;5069400;28;20027;-43
2021/11/24 00:49:03;;;;;;;19.15;7.15;;;6.80;99.90;;;;;;5069779;28;20020;-44
2021/11/24 00:51:28;;;;;;;26.50;7.57;;;6.80;99.90;;;;;;5069416;28;20013;-43
2021/11/24 00:53:54;;;;;;;36.63;7.20;;;6.70;99.90;;;;;;5069186;28;20055;-43
2021/11/24 00:56:19;;;;;;;34.33;7.15;;;6.70;99.90;;;;;;5070794;28;20039;-43
2021/11/24 00:58:45;;;;;;;9.98;5.82;;;6.70;99.90;;;;;;5069003;28;20040;-43
2021/11/24 01:01:10;;;;;;;34.65;6.60;;;6.80;99.90;;;;;;5069187;28;20063;-42
2021/11/24 01:03:38;;;;;;;43.33;6.63;;;6.80;99.90;;;;;;5069868;28;20086;-42
2021/11/24 01:06:03;;;;;;;21.63;5.80;;;6.80;99.90;;;;;;5068997;28;20048;-42
2021/11/24 01:08:29;;;;;;;28.80;5.78;;;6.80;99.90;;;;;;5069465;28;20463;-43
2021/11/24 01:10:55;;;;;;;44.25;5.53;;;6.80;99.90;;;;;;5069426;28;20688;-42
2021/11/24 01:13:21;;;;;;;13.73;5.00;;;6.80;99.90;;;;;;5069337;28;20438;-43
2021/11/24 01:15:47;;;;;;;26.45;5.45;;;6.80;99.90;;;;;;5069149;28;20028;-43
2021/11/24 01:18:14;;;;;;;35.05;5.65;;;6.80;99.90;;;;;;5069435;28;20506;-42
2021/11/24 01:20:40;;;;;;;9.80;4.80;;;6.80;99.90;;;;;;5068639;28;20376;-43
2021/11/24 01:23:06;;;;;;;19.52;5.10;;;6.80;99.90;;;;;;5068929;28;20049;-43
2021/11/24 01:25:32;;;;;;;14.70;4.97;;;6.80;99.90;;;;;;5069549;28;20024;-43
2021/11/24 01:27:58;;;;;;;8.68;4.88;;;6.80;99.90;;;;;;5068800;28;20051;-44
2021/11/24 01:30:25;;;;;;;11.68;4.78;;;6.80;99.90;;;;;;5068854;28;20025;-44
2021/11/24 01:32:50;;;;;;;7.93;5.00;;;6.90;99.90;;;;;;5069636;28;20028;-44
2021/11/24 01:35:16;;;;;;;4.63;4.22;;;6.90;99.90;;;;;;5068443;28;20452;-44
2021/11/24 01:37:42;;;;;;;14.13;4.93;;;6.80;99.90;;;;;;5068793;28;20151;-44
2021/11/24 01:40:09;;;;;;;28.52;5.40;;;6.80;99.90;;;;;;5068958;28;20110;-43
2021/11/24 01:42:37;;;;;;;12.20;5.22;;;6.80;99.90;;;;;;5068670;28;20020;-42
2021/11/24 01:45:04;;;;;;;20.85;4.80;;;6.80;99.90;;;;;;5068603;28;20032;-43
2021/11/24 01:47:30;;;;;;;8.40;5.38;;;6.90;99.90;;;;;;5067987;28;20102;-43
2021/11/24 01:49:56;;;;;;;20.77;5.72;;;6.90;99.90;;;;;;5068518;28;20464;-44
2021/11/24 01:52:22;;;;;;;14.35;5.22;;;6.90;99.90;;;;;;5068796;28;20029;-44
2021/11/24 01:54:48;;;;;;;10.30;4.50;;;7.00;99.90;;;;;;5068643;28;20070;-44
2021/11/24 01:57:17;;;;;;;14.63;5.07;;;7.00;99.90;;;;;;5068597;28;20021;-43
2021/11/24 01:59:45;;;;;;;15.52;5.10;;;7.00;99.90;;;;;;5068248;28;20506;-44
2021/11/24 02:02:11;;;;;;;9.80;5.35;;;7.00;99.90;;;;;;5067881;28;20031;-44
2021/11/24 02:04:37;;;;;;;14.63;5.65;;;7.00;99.90;;;;;;5068148;28;20565;-44
2021/11/24 02:07:03;;;;;;;13.57;5.60;;;7.00;99.90;;;;;;5068699;28;20364;-43
2021/11/24 02:09:28;;;;;;;14.27;5.40;;;7.10;99.90;;;;;;5067901;28;20535;-43
2021/11/24 02:11:56;;;;;;;9.27;6.28;;;7.10;99.90;;;;;;5067645;28;20376;-43
2021/11/24 02:14:22;;;;;;;11.95;6.18;;;7.10;99.90;;;;;;5068431;28;20082;-44
2021/11/24 02:16:50;;;;;;;10.75;5.43;;;7.00;99.90;;;;;;5067711;28;20056;-43
2021/11/24 02:19:17;;;;;;;11.48;5.65;;;7.00;99.90;;;;;;5068278;28;20044;-43
2021/11/24 02:21:51;;;;;;;6.10;5.30;;;7.00;99.90;;;;;;5068409;28;20017;-44
2021/11/24 02:24:18;;;;;;;9.27;5.97;;;7.00;99.90;;;;;;5068060;28;20150;-44
2021/11/24 02:26:44;;;;;;;7.50;5.70;;;7.00;99.90;;;;;;5067696;28;20569;-44
2021/11/24 02:29:12;;;;;;;6.75;6.13;;;7.00;99.90;;;;;;5068216;28;20024;-44
2021/11/24 02:31:38;;;;;;;6.45;5.85;;;7.00;99.90;;;;;;5067339;28;20020;-43
2021/11/24 02:34:04;;;;;;;6.95;6.30;;;7.00;99.90;;;;;;5067874;28;20035;-43
2021/11/24 02:36:32;;;;;;;7.05;6.45;;;7.00;99.90;;;;;;5066971;28;20537;-44
2021/11/24 02:38:59;;;;;;;7.63;6.57;;;7.00;99.90;;;;;;5067161;28;20099;-43
2021/11/24 02:41:26;;;;;;;8.88;6.95;;;7.00;99.90;;;;;;5068360;28;20093;-43
2021/11/24 02:43:52;;;;;;;9.50;6.45;;;7.00;99.90;;;;;;5067189;28;20033;-43
2021/11/24 02:46:17;;;;;;;8.38;5.93;;;6.90;99.90;;;;;;5067658;28;20036;-43
2021/11/24 02:48:43;;;;;;;6.60;6.00;;;6.90;99.90;;;;;;5067526;28;20081;-42
2021/11/24 02:51:09;;;;;;;8.90;6.10;;;6.90;99.90;;;;;;5067332;28;20452;-44
2021/11/24 02:53:36;;;;;;;6.88;6.25;;;6.80;99.90;;;;;;5067036;28;20032;-44
2021/11/24 02:56:03;;;;;;;9.25;6.47;;;6.80;99.90;;;;;;5067535;28;20032;-43
2021/11/24 02:58:29;;;;;;;8.23;6.38;;;6.80;99.90;;;;;;5067111;28;20032;-44
2021/11/24 03:00:58;;;;;;;10.07;6.47;;;6.70;99.90;;;;;;5067196;28;20032;-44
2021/11/24 03:03:23;;;;;;;10.45;6.78;;;6.70;99.90;;;;;;5067130;28;20031;-44
2021/11/24 03:05:49;;;;;;;7.65;6.05;;;6.70;99.90;;;;;;5067355;28;20379;-44
2021/11/24 03:08:15;;;;;;;6.38;5.78;;;6.70;99.90;;;;;;5067313;28;20062;-43
2021/11/24 03:10:40;;;;;;;9.50;6.72;;;6.60;99.90;;;;;;5067053;28;20456;-43
2021/11/24 03:13:09;;;;;;;11.88;7.70;;;6.60;99.90;;;;;;5066405;28;20017;-43
2021/11/24 03:15:35;;;;;;;13.20;8.07;;;6.60;99.90;;;;;;5067180;28;20028;-42
2021/11/24 03:18:07;;;;;;;11.23;7.97;;;6.60;99.90;;;;;;5066794;28;20059;-44
2021/11/24 03:20:32;;;;;;;10.00;9.00;;;6.60;99.90;;;;;;5066223;28;20452;-43
2021/11/24 03:22:58;;;;;;;9.68;8.52;;;6.60;99.90;;;;;;5067441;28;20020;-44
2021/11/24 03:25:24;;;;;;;9.50;8.50;;;6.70;99.90;;;;;;5065785;28;20016;-46
2021/11/24 03:27:50;;;;;;;9.77;8.77;;;6.70;99.90;;;;;;5066475;28;20035;-42
2021/11/24 03:30:28;;;;;;;10.20;8.85;;;6.70;99.90;;;;;;5067232;28;20024;-42
2021/11/24 03:32:55;;;;;;;9.05;8.00;;;6.70;99.90;;;;;;5066777;28;20036;-44
2021/11/24 03:35:22;;;;;;;8.98;8.05;;;6.70;99.90;;;;;;5066784;28;20033;-44
2021/11/24 03:37:50;;;;;;;9.02;8.00;;;6.70;99.90;;;;;;5067150;28;20029;-43
2021/11/24 03:40:19;;;;;;;8.63;7.72;;;6.80;99.90;;;;;;5067129;28;20071;-43
2021/11/24 03:42:46;;;;;;;8.55;7.65;;;6.70;99.90;;;;;;5066390;28;20059;-44
2021/11/24 03:45:14;;;;;;;7.85;7.05;;;6.80;99.90;;;;;;5066424;28;20434;-45
2021/11/24 03:47:43;;;;;;;7.57;6.88;;;6.70;99.90;;;;;;5066554;28;20028;-43
2021/11/24 03:50:09;;;;;;;7.38;6.68;;;6.80;99.90;;;;;;5066714;28;20052;-42
2021/11/24 03:52:35;;;;;;;7.68;6.95;;;6.80;99.90;;;;;;5066753;28;20028;-43
2021/11/24 03:55:01;;;;;;;7.82;7.10;;;6.70;99.90;;;;;;5065911;28;20039;-44
2021/11/24 03:57:27;;;;;;;7.50;6.80;;;6.70;99.90;;;;;;5067002;28;20028;-43
2021/11/24 03:59:52;;;;;;;6.60;6.00;;;6.70;99.90;;;;;;5066566;28;20078;-42
2021/11/24 04:02:18;;;;;;;6.38;5.78;;;6.60;99.90;;;;;;5066269;28;20017;-43
2021/11/24 04:04:43;;;;;;;7.05;6.40;;;6.60;99.90;;;;;;5066574;28;20108;-43
2021/11/24 04:07:09;;;;;;;7.15;6.47;;;6.60;99.90;;;;;;5066429;28;20102;-43
2021/11/24 04:09:38;;;;;;;6.28;5.68;;;6.50;99.90;;;;;;5066038;28;20486;-42
2021/11/24 04:12:07;;;;;;;6.60;5.97;;;6.50;99.90;;;;;;5066954;28;20024;-43
2021/11/24 04:14:33;;;;;;;6.70;6.10;;;6.50;99.90;;;;;;5066751;28;20044;-43
2021/11/24 04:16:59;;;;;;;6.72;6.13;;;6.50;99.90;;;;;;5065678;28;20048;-43
2021/11/24 04:19:24;;;;;;;6.43;5.82;;;6.40;99.90;;;;;;5066662;28;20036;-43
2021/11/24 04:21:50;;;;;;;6.93;6.28;;;6.50;99.90;;;;;;5066164;28;20037;-43
2021/11/24 04:24:18;;;;;;;6.85;6.22;;;6.50;99.90;;;;;;5066284;28;20055;-44
2021/11/24 04:26:44;;;;;;;7.00;6.30;;;6.40;99.90;;;;;;5066059;28;20028;-43
2021/11/24 04:29:09;;;;;;;7.25;6.55;;;6.40;99.90;;;;;;5066270;28;20036;-42
2021/11/24 04:31:35;;;;;;;6.57;5.97;;;6.40;99.90;;;;;;5066169;28;20021;-42
2021/11/24 04:34:00;;;;;;;7.18;6.47;;;6.40;99.90;;;;;;5066394;28;20055;-44
2021/11/24 04:36:26;;;;;;;7.10;6.40;;;6.40;99.90;;;;;;5068364;28;20016;-43
2021/11/24 04:38:51;;;;;;;7.38;6.68;;;6.40;99.90;;;;;;5069602;28;20428;-42
2021/11/24 04:41:17;;;;;;;7.20;6.50;;;6.40;99.90;;;;;;5070119;28;20527;-43
2021/11/24 04:43:45;;;;;;;7.25;6.55;;;6.30;99.90;;;;;;5069790;28;20085;-44
2021/11/24 04:46:13;;;;;;;6.78;6.07;;;6.30;99.90;;;;;;5069609;28;20025;-43
2021/11/24 04:48:39;;;;;;;6.63;6.00;;;6.30;99.90;;;;;;5070115;28;20032;-43
2021/11/24 04:51:05;;;;;;;7.65;6.65;;;6.30;99.90;;;;;;5069070;28;20541;-43
2021/11/24 04:53:31;;;;;;;6.97;6.38;;;6.40;99.90;;;;;;5065967;28;20555;-43
2021/11/24 04:55:56;;;;;;;6.85;6.15;;;6.30;99.90;;;;;;5070212;28;20017;-42
2021/11/24 04:58:22;;;;;;;6.20;5.60;;;6.30;99.90;;;;;;5068901;28;20415;-44
2021/11/24 05:00:48;;;;;;;5.88;5.38;;;6.30;99.90;;;;;;5069980;28;20029;-42
2021/11/24 05:03:13;;;;;;;6.95;6.32;;;6.30;99.90;;;;;;5069586;28;20419;-42
2021/11/24 05:05:39;;;;;;;7.80;6.13;;;6.20;99.90;;;;;;5048849;28;20021;-43
2021/11/24 05:08:05;;;;;;;6.72;6.13;;;6.30;99.90;;;;;;5063094;28;20063;-42
2021/11/24 05:10:31;;;;;;;7.07;6.38;;;6.20;99.90;;;;;;5069688;28;20036;-42
2021/11/24 05:12:57;;;;;;;9.70;7.53;;;6.30;99.90;;;;;;5068667;28;20029;-44
2021/11/24 05:15:26;;;;;;;7.40;6.70;;;6.30;99.90;;;;;;5069391;28;20034;-43
2021/11/24 05:17:57;;;;;;;8.07;7.03;;;6.30;99.90;;;;;;5068930;28;20066;-43
2021/11/24 05:20:28;;;;;;;7.10;6.45;;;6.30;99.90;;;;;;5068885;28;20035;-43
2021/11/24 05:22:54;;;;;;;8.07;7.28;;;6.40;99.90;;;;;;5069061;28;20541;-44
2021/11/24 05:25:19;;;;;;;8.40;6.45;;;6.40;99.90;;;;;;5069078;28;20028;-42
2021/11/24 05:27:45;;;;;;;27.35;9.60;;;6.40;99.90;;;;;;5068747;28;20028;-43
2021/11/24 05:30:11;;;;;;;20.48;9.02;;;6.40;99.90;;;;;;5069428;28;20036;-42
2021/11/24 05:32:37;;;;;;;17.80;8.55;;;6.40;99.90;;;;;;5068580;28;20098;-43
2021/11/24 05:35:03;;;;;;;14.20;8.65;;;6.30;99.90;;;;;;5068939;28;20667;-43
2021/11/24 05:37:29;;;;;;;16.80;7.75;;;6.40;99.90;;;;;;5068927;28;20040;-43
2021/11/24 05:39:55;;;;;;;15.13;7.72;;;6.40;99.90;;;;;;5067763;28;20036;-44
2021/11/24 05:42:20;;;;;;;16.67;7.32;;;6.50;99.90;;;;;;5069667;28;20025;-43
2021/11/24 05:44:49;;;;;;;7.95;6.60;;;6.50;99.90;;;;;;5068553;28;20052;-43
2021/11/24 05:50:07;;;;;;;17.10;5.95;;;6.50;99.90;;;;;;5059718;28;20154;-43
2021/11/24 05:52:33;;;;;;;11.63;5.05;;;6.60;99.90;;;;;;5068770;28;20117;-43
2021/11/24 05:54:58;;;;;;;14.68;4.82;;;6.60;99.90;;;;;;5067710;28;20052;-43
2021/11/24 05:57:24;;;;;;;18.40;4.55;;;6.60;99.90;;;;;;5069029;28;20051;-43
2021/11/24 05:59:49;;;;;;;25.20;4.65;;;6.60;99.90;;;;;;5068009;28;20475;-43
2021/11/24 06:02:15;;;;;;;14.65;4.65;;;6.60;99.90;;;;;;5068195;28;20036;-42
2021/11/24 06:04:40;;;;;;;8.07;4.40;;;6.70;99.90;;;;;;5068479;28;20078;-43
2021/11/24 06:07:06;;;;;;;5.03;4.53;;;6.70;99.90;;;;;;5068346;28;20082;-43
2021/11/24 06:09:31;;;;;;;16.95;5.82;;;6.70;99.90;;;;;;5067551;28;20029;-43
2021/11/24 06:11:59;;;;;;;24.90;7.00;;;6.70;99.90;;;;;;5068568;28;20024;-43
2021/11/24 06:14:25;;;;;;;19.13;8.02;;;6.80;99.90;;;;;;5068243;28;20028;-43
2021/11/24 06:16:50;;;;;;;17.33;7.90;;;6.80;99.90;;;;;;5067288;28;20105;-42
2021/11/24 06:19:16;;;;;;;19.08;8.80;;;6.80;99.90;;;;;;5068710;28;20032;-43
2021/11/24 06:21:41;;;;;;;18.60;8.35;;;6.90;99.90;;;;;;5067594;28;20082;-44
2021/11/24 06:24:07;;;;;;;24.67;8.30;;;6.90;99.90;;;;;;5067748;28;20119;-44
2021/11/24 06:26:33;;;;;;;22.42;9.45;;;6.90;99.90;;;;;;5068134;28;20104;-42
2021/11/24 06:28:58;;;;;;;19.50;8.63;;;6.90;99.90;;;;;;5067605;28;20032;-43
2021/11/24 06:31:26;;;;;;;15.73;8.23;;;6.90;99.90;;;;;;5067565;28;20033;-43
2021/11/24 06:33:52;;;;;;;15.13;9.27;;;6.90;99.90;;;;;;5068164;28;20024;-44
2021/11/24 06:36:19;;;;;;;14.48;9.57;;;6.90;99.90;;;;;;5066537;28;20067;-44
2021/11/24 06:38:52;;;;;;;17.67;10.02;;;6.90;99.90;;;;;;5063862;28;20072;-43
2021/11/24 06:41:17;;;;;;;16.80;10.85;;;6.90;99.90;;;;;;5067357;28;20067;-44
2021/11/24 06:43:43;;;;;;;16.10;10.52;;;6.90;99.90;;;;;;5067732;28;20060;-43
2021/11/24 06:46:09;;;;;;;16.40;10.50;;;6.90;99.90;;;;;;5064964;28;20038;-43
2021/11/24 06:48:34;;;;;;;17.50;10.00;;;6.90;99.90;;;;;;5062098;28;20601;-44
2021/11/24 06:51:00;;;;;;;14.30;9.57;;;7.00;99.90;;;;;;5066604;28;20025;-44
2021/11/24 06:53:26;;;;;;;16.73;10.27;;;7.00;99.90;;;;;;5067355;28;20036;-43
2021/11/24 06:55:51;;;;;;;32.45;18.50;;;7.00;99.90;;;;;;5059371;28;20063;-43
2021/11/24 06:58:17;;;;;;;20.88;13.55;;;7.00;99.90;;;;;;5064301;28;20055;-42
2021/11/24 07:00:43;;;;;;;17.73;11.77;;;7.00;99.90;;;;;;5065475;28;20107;-44
2021/11/24 07:03:09;;;;;;;15.82;10.63;;;7.10;99.90;;;;;;5066459;28;20104;-43
2021/11/24 07:05:34;;;;;;;15.68;9.70;;;7.00;99.90;;;;;;5064992;28;20055;-42
2021/11/24 07:08:00;;;;;;;13.80;8.80;;;7.10;99.90;;;;;;5066759;28;20612;-42
2021/11/24 07:10:26;;;;;;;12.20;7.72;;;7.10;99.90;;;;;;5065994;28;20028;-43
2021/11/24 07:12:52;;;;;;;12.52;8.18;;;7.10;99.90;;;;;;5066008;28;20591;-43
2021/11/24 07:15:17;;;;;;;8.82;6.80;;;7.10;99.90;;;;;;5068095;28;20025;-43
2021/11/24 07:17:43;;;;;;;9.38;7.03;;;7.10;99.90;;;;;;5066304;28;20079;-43
2021/11/24 07:20:09;;;;;;;9.30;6.85;;;7.10;99.90;;;;;;5046549;28;20043;-43
2021/11/24 07:22:34;;;;;;;8.98;6.88;;;7.00;99.90;;;;;;5060925;28;20476;-44
2021/11/24 07:25:00;;;;;;;8.82;6.72;;;7.00;99.90;;;;;;5064783;28;20039;-43
2021/11/24 07:27:26;;;;;;;9.45;6.60;;;7.00;99.90;;;;;;5065884;28;20035;-42
2021/11/24 07:29:52;;;;;;;8.13;6.50;;;6.90;99.90;;;;;;5067099;28;20063;-44
2021/11/24 07:32:18;;;;;;;8.27;6.53;;;6.90;99.90;;;;;;5066461;28;20021;-44
2021/11/24 07:34:43;;;;;;;10.88;7.68;;;6.90;99.90;;;;;;5066657;28;20388;-43
2021/11/24 07:37:09;;;;;;;10.18;8.10;;;6.90;99.90;;;;;;5066847;28;20020;-42
2021/11/24 07:39:35;;;;;;;9.45;7.88;;;6.90;99.90;;;;;;5065765;28;20151;-44
2021/11/24 07:42:00;;;;;;;7.13;6.38;;;7.00;99.90;;;;;;5066145;28;20025;-43
2021/11/24 07:44:26;;;;;;;11.43;7.10;;;7.00;99.90;;;;;;5066878;28;20032;-43
2021/11/24 07:46:51;;;;;;;10.77;7.45;;;7.00;99.90;;;;;;5051762;28;20029;-42
2021/11/24 07:49:17;;;;;;;12.13;8.13;;;7.00;99.90;;;;;;5066995;28;20036;-43
2021/11/24 07:51:42;;;;;;;12.43;8.45;;;7.10;99.90;;;;;;5066048;28;20029;-44
2021/11/24 07:54:08;;;;;;;12.70;8.90;;;7.10;99.90;;;;;;5065565;28;20036;-44
2021/11/24 07:56:34;;;;;;;10.35;8.48;;;7.20;99.90;;;;;;5066545;28;20024;-44
2021/11/24 07:58:59;;;;;;;19.70;7.78;;;7.20;99.90;;;;;;5066565;28;20090;-44
2021/11/24 08:01:25;;;;;;;10.98;7.03;;;7.10;99.90;;;;;;5059320;28;20071;-43
2021/11/24 08:03:51;;;;;;;9.25;7.05;;;7.10;99.90;;;;;;5058165;28;20020;-44
2021/11/24 08:06:19;;;;;;;9.85;6.80;;;7.10;99.90;;;;;;5046080;28;20016;-43
2021/11/24 08:08:44;;;;;;;8.27;6.35;;;7.00;99.90;;;;;;5065778;28;20099;-42
2021/11/24 08:11:10;;;;;;;9.32;6.82;;;7.00;99.90;;;;;;5068125;28;20417;-42
2021/11/24 08:13:35;;;;;;;7.78;6.50;;;7.00;99.90;;;;;;5070254;28;20059;-43
2021/11/24 08:16:01;;;;;;;9.05;6.65;;;7.10;99.90;;;;;;5054625;28;20027;-42
2021/11/24 08:18:35;;;;;;;11.88;7.78;;;7.10;99.90;;;;;;5069334;28;20158;-43
2021/11/24 08:21:01;;;;;;;10.90;8.32;;;7.20;99.90;;;;;;5059958;28;20140;-44
2021/11/24 08:23:29;;;;;;;12.45;8.05;;;7.20;99.90;;;;;;5068989;28;20108;-43
2021/11/24 08:25:58;;;;;;;16.45;9.82;;;7.10;99.90;;;;;;5055149;28;20027;-44
2021/11/24 08:28:24;;;;;;;40.78;8.20;;;7.20;99.90;;;;;;5068530;28;20067;-44
2021/11/24 08:30:54;;;;;;;34.17;7.10;;;7.20;99.90;;;;;;5069910;28;20028;-43
2021/11/24 08:33:20;;;;;;;21.38;7.57;;;7.20;99.90;;;;;;5070065;28;20472;-43
2021/11/24 08:35:49;;;;;;;32.70;7.38;;;7.20;99.90;;;;;;5054061;28;20043;-42
2021/11/24 08:38:15;;;;;;;8.95;6.75;;;7.30;99.90;;;;;;5069632;28;20016;-43
2021/11/24 08:40:41;;;;;;;11.60;7.28;;;7.30;99.90;;;;;;5070036;28;20024;-44
2021/11/24 08:43:06;;;;;;;9.32;7.13;;;7.30;99.90;;;;;;5068907;28;20021;-43
2021/11/24 08:45:34;;;;;;;10.65;7.10;;;7.40;99.90;;;;;;5054429;28;20060;-43
2021/11/24 08:48:02;;;;;;;12.98;8.07;;;7.40;99.90;;;;;;5069463;28;20063;-43
2021/11/24 08:50:28;;;;;;;21.15;7.57;;;7.50;99.90;;;;;;5068642;28;20021;-42
2021/11/24 08:52:54;;;;;;;21.42;7.93;;;7.50;99.90;;;;;;5069251;28;20429;-43
2021/11/24 08:55:20;;;;;;;11.00;7.28;;;7.60;99.90;;;;;;5054352;28;20562;-44
2021/11/24 08:57:47;;;;;;;12.20;7.35;;;7.60;99.90;;;;;;5068633;28;20025;-43
2021/11/24 09:00:15;;;;;;;25.48;7.70;;;7.60;99.90;;;;;;5069452;28;20030;-43
2021/11/24 09:02:41;;;;;;;15.23;8.07;;;7.70;99.90;;;;;;5069756;28;20021;-42
2021/11/24 09:05:07;;;;;;;17.05;7.97;;;7.70;99.90;;;;;;5053421;28;20022;-44
2021/11/24 09:07:33;;;;;;;29.17;8.68;;;7.70;99.90;;;;;;5068982;28;20129;-43
2021/11/24 09:10:01;;;;;;;15.35;8.77;;;7.80;99.90;;;;;;5069112;28;20574;-43
2021/11/24 09:12:27;;;;;;;21.67;8.85;;;7.80;99.90;;;;;;5066646;28;20028;-44
2021/11/24 09:14:52;;;;;;;16.65;8.75;;;7.80;99.90;;;;;;5058595;28;20458;-42
2021/11/24 09:17:18;;;;;;;12.60;9.15;;;7.90;99.90;;;;;;5064837;28;20051;-44
2021/11/24 09:19:45;;;;;;;11.43;8.98;;;7.90;99.90;;;;;;5067737;28;20043;-42
2021/11/24 09:22:12;;;;;;;12.35;8.95;;;7.90;99.90;;;;;;5067471;28;20086;-43
2021/11/24 09:24:39;;;;;;;13.13;8.95;;;7.90;99.90;;;;;;5058328;28;20090;-43
2021/11/24 09:27:18;;;;;;;13.50;9.52;;;7.90;99.90;;;;;;5053800;28;20845;-43
2021/11/24 09:29:47;;;;;;;13.15;9.27;;;7.90;99.90;;;;;;5057706;28;20036;-43
2021/11/24 09:32:13;;;;;;;11.40;8.32;;;7.90;99.90;;;;;;5064529;28;20024;-44
2021/11/24 09:34:39;;;;;;;12.00;9.52;;;7.90;99.90;;;;;;5038365;28;20126;-43
2021/11/24 09:37:05;;;;;;;11.52;8.55;;;8.00;99.90;;;;;;5058417;28;20471;-44
2021/11/24 09:39:31;;;;;;;13.05;9.48;;;8.00;99.90;;;;;;5067766;28;20046;-44
2021/11/24 09:42:03;;;;;;;10.90;8.80;;;8.00;99.90;;;;;;5068754;28;20020;-44
2021/11/24 09:44:29;;;;;;;10.23;8.35;;;8.10;99.90;;;;;;5060631;28;20028;-44
2021/11/24 09:46:57;;;;;;;11.35;8.95;;;8.10;99.90;;;;;;5063096;28;20046;-43
2021/11/24 09:49:23;;;;;;;11.63;8.93;;;8.20;99.90;;;;;;5068494;28;20052;-43
2021/11/24 09:51:52;;;;;;;9.10;8.13;;;8.20;99.90;;;;;;5068294;28;20016;-42
2021/11/24 09:54:17;;;;;;;8.68;7.65;;;8.20;99.90;;;;;;5062127;28;20028;-43
2021/11/24 09:56:45;;;;;;;9.00;8.10;;;8.30;99.90;;;;;;5059642;28;20020;-42
2021/11/24 09:59:11;;;;;;;9.25;8.25;;;8.30;99.90;;;;;;5057664;28;20032;-43
2021/11/24 10:01:41;;;;;;;10.32;8.73;;;8.40;99.90;;;;;;5067150;28;20019;-44
2021/11/24 10:04:11;;;;;;;10.68;8.93;;;8.40;99.90;;;;;;5062143;28;20025;-44
2021/11/24 10:06:39;;;;;;;9.93;7.63;;;8.40;99.90;;;;;;5058813;28;20021;-43
2021/11/24 10:09:05;;;;;;;9.95;8.57;;;8.50;99.90;;;;;;5064183;28;20028;-43
2021/11/24 10:11:31;;;;;;;8.95;7.60;;;8.50;99.90;;;;;;5067640;28;20035;-43
2021/11/24 10:14:01;;;;;;;8.02;7.22;;;8.60;99.90;;;;;;5065505;28;20017;-43
2021/11/24 10:16:29;;;;;;;8.15;7.13;;;8.60;99.90;;;;;;5058886;28;20029;-43
2021/11/24 10:19:14;;;;;;;6.80;6.10;;;8.70;99.90;;;;;;5067788;28;20039;-43
2021/11/24 10:21:59;;;;;;;5.40;4.90;;;8.80;99.90;;;;;;5066875;28;20050;-42
2021/11/24 10:24:37;;;;;;;5.10;4.60;;;8.90;99.90;;;;;;5060338;28;20653;-42
2021/11/24 10:27:07;;;;;;;5.47;4.10;;;9.00;99.90;;;;;;5063570;28;20024;-43
2021/11/24 10:29:34;;;;;;;3.95;3.55;;;9.10;99.90;;;;;;5066811;28;20039;-44
2021/11/24 10:32:04;;;;;;;4.13;3.28;;;9.10;99.90;;;;;;5067870;28;20048;-43
2021/11/24 10:34:36;;;;;;;3.03;2.72;;;9.20;99.90;;;;;;5056753;28;20043;-44
2021/11/24 10:37:15;;;;;;;3.08;2.65;;;9.30;99.90;;;;;;5062694;28;20024;-43
2021/11/24 10:39:51;;;;;;;2.45;2.25;;;9.40;99.90;;;;;;5067706;28;20036;-43
2021/11/24 10:42:25;;;;;;;1.95;1.55;;;9.40;99.90;;;;;;5067151;28;20025;-44
2021/11/24 10:45:13;;;;;;;0.90;0.88;;;9.50;99.90;;;;;;5055646;28;20472;-43
2021/11/24 10:47:54;;;;;;;1.40;1.30;;;9.50;99.90;;;;;;5067665;28;20137;-43
2021/11/24 10:50:26;;;;;;;0.80;0.80;;;9.50;99.90;;;;;;5066116;28;20036;-43
2021/11/24 10:52:52;;;;;;;1.63;0.90;;;9.50;99.90;;;;;;5067200;28;20520;-43
2021/11/24 10:55:30;;;;;;;1.75;1.00;;;9.60;99.90;;;;;;5052095;28;20542;-43
2021/11/24 10:58:05;;;;;;;2.28;1.20;;;9.60;99.90;;;;;;5066607;28;20081;-42
2021/11/24 11:00:32;;;;;;;1.98;1.27;;;9.60;99.90;;;;;;5066944;28;20093;-43
2021/11/24 11:02:58;;;;;;;1.98;1.60;;;9.70;99.90;;;;;;5066675;28;20037;-42
2021/11/24 11:05:25;;;;;;;1.98;1.60;;;9.70;99.90;;;;;;5050959;28;20036;-43
2021/11/24 11:07:51;;;;;;;1.58;1.35;;;9.70;99.90;;;;;;5067234;28;20388;-43
2021/11/24 11:10:18;;;;;;;1.23;1.13;;;9.70;99.90;;;;;;5066693;28;20039;-43
2021/11/24 11:12:47;;;;;;;1.98;1.45;;;9.80;99.90;;;;;;5066294;28;20021;-44
2021/11/24 11:15:25;;;;;;;1.48;1.10;;;9.80;99.90;;;;;;5051430;28;20023;-42
2021/11/24 11:18:13;;;;;;;1.10;1.00;;;9.80;99.90;;;;;;5066454;28;20048;-42
2021/11/24 11:20:44;;;;;;;1.27;1.10;;;9.80;99.90;;;;;;5066524;28;20538;-44
2021/11/24 11:23:26;;;;;;;1.45;1.10;;;9.80;99.90;;;;;;5066557;28;20111;-42
2021/11/24 11:25:54;;;;;;;1.15;0.95;;;9.80;99.90;;;;;;5051150;28;20028;-44
2021/11/24 11:28:22;;;;;;;1.13;0.93;;;9.80;99.90;;;;;;5067168;28;20025;-44
2021/11/24 11:30:49;;;;;;;1.10;0.80;;;9.80;99.90;;;;;;5066894;28;20025;-43
2021/11/24 11:33:17;;;;;;;0.70;0.70;;;9.80;99.90;;;;;;5065798;28;20033;-42
2021/11/24 11:35:44;;;;;;;0.60;0.60;;;9.80;99.90;;;;;;5051580;28;20040;-43
2021/11/24 11:38:11;;;;;;;0.70;0.70;;;9.90;99.90;;;;;;5066081;28;20507;-42
2021/11/24 11:40:40;;;;;;;0.63;0.60;;;9.90;99.90;;;;;;5066025;28;20051;-43
2021/11/24 11:43:08;;;;;;;1.17;0.77;;;9.90;99.90;;;;;;5066386;28;20119;-44
2021/11/24 11:45:34;;;;;;;1.30;0.82;;;9.90;99.90;;;;;;5049434;28;20089;-42
2021/11/24 11:48:02;;;;;;;1.17;0.90;;;9.90;99.90;;;;;;5066215;28;20025;-45
2021/11/24 11:50:55;;;;;;;0.70;0.70;;;9.80;99.90;;;;;;5066951;28;20037;-43
2021/11/24 11:53:25;;;;;;;1.60;0.68;;;9.80;99.90;;;;;;5058169;28;20086;-43
2021/11/24 11:56:05;;;;;;;0.80;0.70;;;9.80;99.90;;;;;;5051137;28;20025;-43
2021/11/24 11:58:31;;;;;;;1.23;0.93;;;9.80;99.90;;;;;;5066248;28;20477;-42
2021/11/24 12:01:17;;;;;;;0.77;0.77;;;9.70;99.90;;;;;;5065610;28;20025;-42
2021/11/24 12:04:16;;;;;;;0.57;0.50;;;9.70;99.90;;;;;;5066024;28;20464;-43
2021/11/24 12:06:52;;;;;;;1.35;0.68;;;9.80;99.90;;;;;;5056456;28;20416;-42
2021/11/24 12:09:29;;;;;;;0.80;0.60;;;9.80;99.90;;;;;;5066772;28;20032;-43
2021/11/24 12:14:48;;;;;;;0.90;0.80;;;9.80;99.90;;;;;;5065718;28;20029;-44
2021/11/24 12:17:37;;;;;;;0.88;0.80;;;9.80;99.90;;;;;;5065116;28;20555;-42
2021/11/24 12:20:15;;;;;;;1.45;0.93;;;9.80;99.90;;;;;;5066414;28;20051;-44
2021/11/24 12:22:56;;;;;;;1.38;1.08;;;9.80;99.90;;;;;;5065145;28;20674;-43
2021/11/24 12:25:29;;;;;;;1.65;1.35;;;9.80;99.90;;;;;;5046736;28;20040;-44
2021/11/24 12:27:57;;;;;;;2.85;1.40;;;9.70;99.90;;;;;;5060681;28;20541;-43
2021/11/24 12:33:18;;;;;;;2.58;2.30;;;9.80;99.90;;;;;;5066012;28;20044;-43
2021/11/24 12:35:48;;;;;;;3.20;2.30;;;9.70;99.90;;;;;;5045448;28;20064;-44
2021/11/24 12:38:16;;;;;;;3.70;2.60;;;9.70;99.90;;;;;;5061050;28;20419;-43
2021/11/24 12:40:44;;;;;;;3.58;2.53;;;9.70;99.90;;;;;;5066595;28;20432;-44
2021/11/24 12:43:18;;;;;;;2.90;2.40;;;9.80;99.90;;;;;;5065580;28;20023;-43
2021/11/24 12:46:07;;;;;;;3.42;2.72;;;9.80;99.90;;;;;;5066042;28;20102;-44
2021/11/24 12:48:51;;;;;;;2.90;2.58;;;9.80;99.90;;;;;;5065643;28;20123;-44
2021/11/24 12:51:23;;;;;;;5.25;2.83;;;9.80;99.90;;;;;;5046589;28;20039;-43
2021/11/24 12:53:51;;;;;;;4.28;3.05;;;9.70;99.90;;;;;;5061791;28;20142;-43
2021/11/24 12:56:20;;;;;;;4.43;3.17;;;9.70;99.90;;;;;;5066152;28;20060;-43
2021/11/24 12:58:48;;;;;;;5.07;3.35;;;9.80;99.90;;;;;;5069550;28;20123;-44
2021/11/24 13:01:20;;;;;;;4.00;3.33;;;9.80;99.90;;;;;;5070018;28;20032;-44
2021/11/24 13:03:52;;;;;;;3.70;3.08;;;9.70;99.90;;;;;;5068744;28;20024;-44